createdAt,value
2022-09-25T00:01:38.514Z,10.93
2022-09-25T00:04:28.712Z,12.17
2022-09-25T00:07:17.054Z,9.53
2022-09-25T00:10:06.015Z,11.43
2022-09-25T00:12:54.345Z,10.70
2022-09-25T00:15:47.612Z,13.63
2022-09-25T00:18:52.597Z,11.07
2022-09-25T00:21:42.439Z,10.80
2022-09-25T00:24:32.056Z,10.90
2022-09-25T00:27:20.414Z,10.07
2022-09-25T00:30:10.952Z,12.67
2022-09-25T00:32:59.299Z,12.30
2022-09-25T00:35:47.633Z,11.93
2022-09-25T00:38:37.960Z,11.10
2022-09-25T00:41:27.355Z,13.50
2022-09-25T00:44:57.828Z,12.20
2022-09-25T00:47:55.076Z,11.93
2022-09-25T00:50:47.577Z,12.60
2022-09-25T00:53:40.756Z,13.37
2022-09-25T00:56:29.835Z,12.47
2022-09-25T00:59:20.004Z,13.97
2022-09-25T01:02:08.463Z,14.83
2022-09-25T01:04:57.265Z,13.10
2022-09-25T01:07:47.396Z,12.40
2022-09-25T01:10:37.234Z,12.73
2022-09-25T01:13:25.606Z,12.07
2022-09-25T01:16:17.096Z,11.63
2022-09-25T01:19:14.661Z,16.90
2022-09-25T01:22:08.904Z,12.17
2022-09-25T01:25:07.665Z,14.50
2022-09-25T01:28:20.146Z,12.93
2022-09-25T01:31:15.236Z,17.30
2022-09-25T01:34:07.378Z,13.37
2022-09-25T01:36:59.429Z,12.80
2022-09-25T01:39:50.497Z,13.13
2022-09-25T01:42:42.284Z,14.43
2022-09-25T01:45:33.022Z,12.83
2022-09-25T01:48:25.363Z,13.20
2022-09-25T01:51:17.258Z,11.73
2022-09-25T01:54:08.403Z,13.27
2022-09-25T01:56:58.586Z,11.37
2022-09-25T01:59:49.471Z,19.27
2022-09-25T02:02:40.827Z,14.63
2022-09-25T02:05:32.073Z,14.87
2022-09-25T02:08:22.562Z,13.73
2022-09-25T02:11:10.919Z,14.73
2022-09-25T02:14:03.333Z,13.87
2022-09-25T02:16:54.723Z,15.57
2022-09-25T02:20:15.432Z,15.47
2022-09-25T02:23:09.684Z,12.83
2022-09-25T02:26:01.118Z,13.87
2022-09-25T02:28:51.524Z,15.23
2022-09-25T02:31:41.827Z,13.87
2022-09-25T02:34:30.209Z,12.10
2022-09-25T02:37:19.438Z,12.87
2022-09-25T02:40:11.611Z,12.27
2022-09-25T02:43:06.131Z,12.30
2022-09-25T02:46:03.035Z,14.77
2022-09-25T02:48:53.276Z,11.37
2022-09-25T02:51:47.294Z,13.27
2022-09-25T02:54:40.002Z,13.47
2022-09-25T02:57:34.401Z,13.93
2022-09-25T03:00:23.674Z,13.40
2022-09-25T03:03:14.461Z,13.43
2022-09-25T03:06:02.780Z,14.50
2022-09-25T03:08:52.966Z,14.83
2022-09-25T03:11:43.525Z,17.33
2022-09-25T03:14:33.238Z,14.40
2022-09-25T03:17:23.105Z,14.53
2022-09-25T03:20:11.485Z,19.33
2022-09-25T03:22:59.837Z,17.10
2022-09-25T03:25:50.276Z,18.77
2022-09-25T03:28:39.587Z,15.83
2022-09-25T03:31:29.812Z,14.23
2022-09-25T03:34:18.956Z,16.17
2022-09-25T03:37:07.357Z,15.27
2022-09-25T03:39:55.722Z,16.93
2022-09-25T03:42:44.128Z,16.77
2022-09-25T03:45:32.480Z,18.23
2022-09-25T03:48:22.688Z,19.27
2022-09-25T03:51:11.139Z,18.13
2022-09-25T03:53:59.601Z,16.63
2022-09-25T03:56:48.144Z,19.83
2022-09-25T03:59:36.493Z,17.83
2022-09-25T04:02:24.926Z,16.57
2022-09-25T04:05:14.817Z,14.73
2022-09-25T04:08:03.362Z,21.37
2022-09-25T04:10:51.687Z,17.63
2022-09-25T04:13:41.858Z,18.17
2022-09-25T04:16:31.283Z,16.40
2022-09-25T04:19:19.659Z,17.10
2022-09-25T04:22:09.356Z,17.77
2022-09-25T04:24:58.289Z,15.57
2022-09-25T04:27:46.688Z,16.10
2022-09-25T04:30:35.203Z,16.70
2022-09-25T04:33:41.148Z,16.90
2022-09-25T04:36:29.470Z,18.57
2022-09-25T04:39:20.431Z,18.23
2022-09-25T04:42:08.787Z,17.03
2022-09-25T04:44:58.051Z,16.10
2022-09-25T04:47:46.425Z,16.57
2022-09-25T04:50:34.965Z,17.00
2022-09-25T04:53:23.936Z,18.33
2022-09-25T04:56:16.028Z,15.90
2022-09-25T04:59:05.057Z,15.00
2022-09-25T05:01:53.532Z,15.37
2022-09-25T05:04:41.946Z,17.10
2022-09-25T05:07:30.404Z,16.73
2022-09-25T05:10:18.748Z,15.80
2022-09-25T05:13:10.095Z,18.40
2022-09-25T05:15:58.467Z,17.20
2022-09-25T05:18:46.837Z,18.60
2022-09-25T05:21:35.328Z,16.30
2022-09-25T05:24:23.772Z,21.37
2022-09-25T05:27:12.537Z,16.70
2022-09-25T05:30:02.394Z,17.83
2022-09-25T05:32:50.898Z,18.90
2022-09-25T05:35:39.266Z,17.77
2022-09-25T05:38:27.586Z,18.03
2022-09-25T05:41:15.927Z,17.33
2022-09-25T05:44:09.481Z,16.83
2022-09-25T05:46:59.307Z,19.00
2022-09-25T05:49:47.676Z,17.97
2022-09-25T05:52:36.139Z,16.90
2022-09-25T05:55:24.507Z,17.30
2022-09-25T05:58:12.926Z,14.43
2022-09-25T06:01:02.486Z,14.97
2022-09-25T06:03:52.461Z,16.90
2022-09-25T06:06:40.826Z,14.07
2022-09-25T06:09:29.182Z,13.63
2022-09-25T06:12:18.336Z,14.63
2022-09-25T06:15:07.920Z,13.63
2022-09-25T06:17:56.558Z,16.40
2022-09-25T06:20:46.271Z,14.30
2022-09-25T06:23:34.777Z,12.60
2022-09-25T06:26:25.847Z,12.73
2022-09-25T06:29:14.207Z,13.90
2022-09-25T06:32:03.224Z,13.67
2022-09-25T06:34:51.593Z,16.87
2022-09-25T06:37:41.309Z,17.03
2022-09-25T06:40:31.519Z,16.43
2022-09-25T06:43:19.989Z,15.77
2022-09-25T06:46:08.399Z,16.80
2022-09-25T06:48:57.770Z,15.10
2022-09-25T06:51:46.714Z,15.90
2022-09-25T06:54:39.458Z,17.23
2022-09-25T06:57:32.671Z,13.60
2022-09-25T07:00:21.522Z,24.77
2022-09-25T07:03:27.729Z,15.27
2022-09-25T07:06:17.587Z,12.80
2022-09-25T07:09:06.391Z,12.87
2022-09-25T07:11:56.155Z,38.67
2022-09-25T07:14:46.737Z,15.60
2022-09-25T07:17:35.169Z,13.47
2022-09-25T07:20:23.517Z,12.20
2022-09-25T07:23:12.149Z,11.40
2022-09-25T07:26:06.223Z,13.07
2022-09-25T07:28:57.310Z,11.87
2022-09-25T07:31:45.810Z,14.20
2022-09-25T07:34:36.055Z,10.90
2022-09-25T07:37:24.519Z,10.97
2022-09-25T07:40:13.667Z,10.13
2022-09-25T07:43:02.299Z,11.80
2022-09-25T07:45:53.592Z,8.67
2022-09-25T07:48:42.069Z,9.43
2022-09-25T07:51:30.595Z,8.10
2022-09-25T07:54:18.974Z,8.40
2022-09-25T07:57:07.489Z,8.10
2022-09-25T07:59:56.104Z,8.03
2022-09-25T08:02:45.839Z,12.07
2022-09-25T08:05:34.222Z,74.07
2022-09-25T08:08:22.552Z,21.97
2022-09-25T08:11:12.271Z,26.63
2022-09-25T08:14:00.687Z,12.97
2022-09-25T08:16:49.221Z,9.77
2022-09-25T08:19:38.920Z,25.80
2022-09-25T08:22:27.255Z,11.63
2022-09-25T08:25:15.909Z,11.57
2022-09-25T08:28:04.300Z,10.53
2022-09-25T08:30:52.705Z,9.03
2022-09-25T08:33:41.132Z,9.47
2022-09-25T08:36:30.866Z,9.93
2022-09-25T08:39:19.344Z,10.47
2022-09-25T08:42:07.832Z,10.13
2022-09-25T08:45:21.195Z,11.03
2022-09-25T08:48:31.487Z,9.63
2022-09-25T08:51:20.128Z,10.17
2022-09-25T08:54:14.509Z,10.00
2022-09-25T08:57:07.872Z,10.13
2022-09-25T09:00:02.170Z,9.23
2022-09-25T09:02:54.454Z,9.67
2022-09-25T09:05:46.154Z,9.37
2022-09-25T09:08:38.451Z,8.50
2022-09-25T09:11:32.753Z,10.97
2022-09-25T09:14:21.733Z,9.97
2022-09-25T09:17:18.183Z,16.17
2022-09-25T09:20:16.392Z,8.47
2022-09-25T09:23:04.826Z,7.87
2022-09-25T09:26:01.904Z,7.93
2022-09-25T09:29:25.585Z,6.93
2022-09-25T09:32:27.896Z,7.07
2022-09-25T09:35:33.504Z,7.20
2022-09-25T09:38:40.182Z,6.87
2022-09-25T09:41:39.587Z,8.80
2022-09-25T09:44:40.559Z,7.60
2022-09-25T09:47:40.497Z,6.47
2022-09-25T09:50:42.495Z,6.00
2022-09-25T09:53:35.360Z,5.67
2022-09-25T09:56:25.556Z,5.70
2022-09-25T09:59:17.641Z,5.20
2022-09-25T10:02:17.681Z,5.77
2022-09-25T10:05:10.058Z,5.17
2022-09-25T10:07:58.645Z,6.83
2022-09-25T10:10:49.890Z,4.97
2022-09-25T10:13:39.222Z,5.83
2022-09-25T10:16:27.586Z,5.40
2022-09-25T10:19:19.937Z,6.10
2022-09-25T10:22:16.423Z,7.47
2022-09-25T10:25:07.074Z,6.97
2022-09-25T10:27:55.407Z,6.37
2022-09-25T10:30:45.547Z,6.73
2022-09-25T10:33:34.044Z,6.17
2022-09-25T10:36:42.133Z,8.27
2022-09-25T10:39:43.997Z,6.83
2022-09-25T10:42:42.563Z,7.13
2022-09-25T10:45:33.320Z,6.30
2022-09-25T10:48:49.210Z,5.20
2022-09-25T10:51:38.950Z,5.47
2022-09-25T10:54:27.409Z,5.43
2022-09-25T10:57:18.739Z,18.23
2022-09-25T11:00:20.550Z,6.90
2022-09-25T11:03:14.739Z,6.60
2022-09-25T11:06:09.452Z,5.70
2022-09-25T11:09:09.298Z,5.17
2022-09-25T11:12:07.852Z,7.13
2022-09-25T11:14:58.603Z,6.10
2022-09-25T11:17:48.579Z,7.80
2022-09-25T11:20:39.821Z,6.20
2022-09-25T11:23:32.225Z,5.83
2022-09-25T11:26:23.151Z,7.33
2022-09-25T11:29:16.132Z,5.50
2022-09-25T11:32:10.225Z,6.20
2022-09-25T11:35:23.345Z,6.30
2022-09-25T11:38:43.424Z,6.17
2022-09-25T11:41:40.940Z,9.67
2022-09-25T11:44:32.818Z,7.57
2022-09-25T11:47:25.157Z,6.70
2022-09-25T11:50:15.971Z,6.63
2022-09-25T11:53:09.150Z,9.37
2022-09-25T11:56:06.895Z,8.30
2022-09-25T11:59:16.541Z,6.20
2022-09-25T12:02:15.802Z,6.40
2022-09-25T12:05:35.484Z,8.60
2022-09-25T12:08:37.780Z,5.70
2022-09-25T12:11:31.573Z,6.63
2022-09-25T12:14:25.845Z,6.17
2022-09-25T12:17:19.448Z,19.43
2022-09-25T12:20:16.408Z,12.47
2022-09-25T12:23:15.916Z,6.50
2022-09-25T12:26:22.543Z,24.90
2022-09-25T12:29:26.038Z,19.27
2022-09-25T12:32:21.875Z,8.77
2022-09-25T12:35:23.781Z,12.40
2022-09-25T12:38:20.786Z,9.33
2022-09-25T12:41:12.659Z,12.07
2022-09-25T12:44:05.088Z,6.90
2022-09-25T12:46:58.928Z,7.47
2022-09-25T12:49:50.084Z,9.17
2022-09-25T12:52:41.956Z,8.33
2022-09-25T12:55:33.161Z,8.70
2022-09-25T12:58:25.016Z,9.13
2022-09-25T13:01:18.361Z,11.17
2022-09-25T13:04:23.026Z,12.67
2022-09-25T13:07:18.269Z,12.73
2022-09-25T13:10:19.344Z,21.50
2022-09-25T13:13:19.255Z,15.80
2022-09-25T13:16:07.893Z,15.17
2022-09-25T13:19:13.804Z,16.93
2022-09-25T13:22:07.199Z,14.40
2022-09-25T13:25:05.402Z,13.47
2022-09-25T13:27:54.271Z,15.30
2022-09-25T13:30:45.576Z,13.97
2022-09-25T13:33:39.526Z,15.17
2022-09-25T13:36:42.423Z,16.13
2022-09-25T13:39:51.280Z,15.50
2022-09-25T13:42:42.209Z,14.40
2022-09-25T13:45:33.471Z,13.17
2022-09-25T13:48:35.985Z,13.70
2022-09-25T13:51:35.661Z,11.77
2022-09-25T13:54:28.524Z,12.37
2022-09-25T13:57:16.918Z,10.10
2022-09-25T14:00:06.548Z,9.13
2022-09-25T14:03:00.976Z,9.37
2022-09-25T14:05:49.315Z,8.50
2022-09-25T14:08:41.337Z,10.43
2022-09-25T14:11:32.111Z,7.53
2022-09-25T14:14:27.666Z,8.07
2022-09-25T14:17:16.978Z,6.93
2022-09-25T14:20:08.389Z,5.57
2022-09-25T14:22:59.002Z,7.73
2022-09-25T14:25:58.291Z,5.90
2022-09-25T14:28:47.856Z,9.53
2022-09-25T14:31:43.369Z,9.47
2022-09-25T14:34:46.469Z,9.90
2022-09-25T14:38:04.107Z,9.33
2022-09-25T14:41:06.020Z,7.70
2022-09-25T14:44:25.766Z,9.70
2022-09-25T14:47:14.568Z,7.43
2022-09-25T14:50:03.051Z,8.60
2022-09-25T14:52:52.809Z,7.60
2022-09-25T14:55:46.719Z,7.87
2022-09-25T14:58:36.713Z,6.07
2022-09-25T15:01:28.023Z,10.17
2022-09-25T15:04:27.086Z,6.03
2022-09-25T15:07:18.645Z,8.30
2022-09-25T15:10:27.496Z,9.07
2022-09-25T15:13:17.262Z,5.53
2022-09-25T15:16:25.065Z,6.07
2022-09-25T15:19:17.804Z,8.30
2022-09-25T15:22:10.746Z,6.10
2022-09-25T15:25:03.513Z,6.97
2022-09-25T15:27:51.869Z,6.37
2022-09-25T15:30:42.122Z,7.77
2022-09-25T15:33:33.923Z,5.00
2022-09-25T15:36:24.922Z,4.63
2022-09-25T15:39:15.900Z,6.57
2022-09-25T15:42:05.605Z,7.97
2022-09-25T15:44:54.639Z,7.33
2022-09-25T15:47:52.165Z,4.90
2022-09-25T15:50:43.892Z,5.00
2022-09-25T15:53:36.000Z,4.97
2022-09-25T15:56:25.398Z,5.60
2022-09-25T15:59:18.567Z,5.33
2022-09-25T16:02:34.847Z,6.13
2022-09-25T16:05:28.215Z,6.70
2022-09-25T16:08:29.278Z,5.93
2022-09-25T16:11:21.547Z,7.60
2022-09-25T16:14:29.175Z,5.27
2022-09-25T16:17:24.101Z,7.67
2022-09-25T16:20:33.254Z,7.53
2022-09-25T16:23:28.822Z,5.80
2022-09-25T16:26:19.663Z,23.57
2022-09-25T16:29:21.272Z,14.83
2022-09-25T16:32:16.993Z,22.93
2022-09-25T16:35:06.075Z,10.77
2022-09-25T16:37:54.979Z,6.57
2022-09-25T16:40:45.310Z,7.23
2022-09-25T16:43:35.487Z,6.27
2022-09-25T16:46:23.986Z,5.07
2022-09-25T16:49:13.184Z,6.77
2022-09-25T16:52:01.975Z,7.10
2022-09-25T16:54:56.738Z,5.37
2022-09-25T16:57:46.655Z,4.97
2022-09-25T17:00:34.984Z,5.50
2022-09-25T17:03:23.303Z,4.17
2022-09-25T17:06:11.683Z,6.77
2022-09-25T17:09:00.234Z,7.40
2022-09-25T17:11:50.158Z,4.80
2022-09-25T17:14:40.150Z,4.77
2022-09-25T17:17:29.653Z,5.37
2022-09-25T17:20:18.153Z,4.67
2022-09-25T17:23:07.199Z,4.50
2022-09-25T17:26:00.525Z,3.77
2022-09-25T17:28:49.420Z,5.03
2022-09-25T17:31:39.594Z,5.93
2022-09-25T17:34:29.523Z,4.30
2022-09-25T17:37:17.876Z,8.57
2022-09-25T17:40:07.727Z,5.30
2022-09-25T17:42:56.056Z,3.27
2022-09-25T17:45:48.605Z,6.90
2022-09-25T17:48:38.334Z,5.60
2022-09-25T17:51:27.607Z,5.50
2022-09-25T17:54:17.270Z,4.53
2022-09-25T17:57:05.728Z,7.30
2022-09-25T17:59:54.408Z,5.33
2022-09-25T18:02:42.832Z,16.70
2022-09-25T18:05:32.597Z,7.97
2022-09-25T18:08:20.950Z,6.57
2022-09-25T18:11:10.832Z,6.53
2022-09-25T18:14:01.167Z,3.50
2022-09-25T18:16:49.648Z,2.57
2022-09-25T18:19:55.744Z,3.43
2022-09-25T18:22:45.513Z,3.87
2022-09-25T18:25:33.844Z,5.10
2022-09-25T18:28:22.263Z,4.63
2022-09-25T18:31:11.169Z,4.37
2022-09-25T18:33:59.575Z,4.20
2022-09-25T18:36:49.189Z,6.23
2022-09-25T18:39:38.942Z,3.67
2022-09-25T18:42:27.353Z,6.83
2022-09-25T18:45:16.107Z,6.30
2022-09-25T18:48:05.338Z,4.03
2022-09-25T18:50:53.703Z,9.30
2022-09-25T18:53:42.182Z,4.67
2022-09-25T18:56:34.416Z,3.20
2022-09-25T18:59:22.727Z,3.93
2022-09-25T19:02:23.434Z,9.47
2022-09-25T19:05:12.022Z,6.40
2022-09-25T19:08:00.404Z,4.37
2022-09-25T19:10:48.773Z,6.10
2022-09-25T19:13:38.494Z,4.63
2022-09-25T19:16:26.913Z,5.20
2022-09-25T19:19:15.434Z,4.77
2022-09-25T19:22:03.947Z,4.10
2022-09-25T19:24:52.579Z,6.07
2022-09-25T19:27:40.962Z,5.47
2022-09-25T19:30:30.662Z,4.60
2022-09-25T19:33:19.876Z,4.63
2022-09-25T19:36:15.520Z,5.47
2022-09-25T19:39:04.094Z,3.27
2022-09-25T19:41:52.529Z,8.10
2022-09-25T19:44:41.261Z,5.40
2022-09-25T19:47:31.769Z,3.43
2022-09-25T19:50:21.374Z,5.07
2022-09-25T19:53:09.733Z,4.47
2022-09-25T19:55:58.249Z,5.07
2022-09-25T19:58:49.646Z,4.73
2022-09-25T20:01:38.342Z,5.83
2022-09-25T20:04:28.201Z,4.23
2022-09-25T20:07:16.703Z,4.63
2022-09-25T20:10:06.009Z,7.63
2022-09-25T20:12:54.360Z,3.50
2022-09-25T20:15:45.650Z,6.07
2022-09-25T20:18:34.103Z,3.07
2022-09-25T20:21:24.474Z,2.77
2022-09-25T20:24:12.854Z,4.83
2022-09-25T20:27:01.233Z,3.37
2022-09-25T20:29:49.590Z,5.17
2022-09-25T20:32:38.638Z,3.50
2022-09-25T20:35:27.062Z,8.70
2022-09-25T20:38:16.865Z,5.27
2022-09-25T20:41:06.966Z,4.30
2022-09-25T20:43:57.494Z,5.87
2022-09-25T20:46:45.849Z,3.60
2022-09-25T20:49:34.187Z,6.23
2022-09-25T20:52:22.605Z,6.63
2022-09-25T20:55:12.420Z,9.47
2022-09-25T20:58:00.799Z,4.90
2022-09-25T21:00:49.278Z,5.97
2022-09-25T21:03:39.204Z,10.83
2022-09-25T21:06:29.520Z,5.47
2022-09-25T21:09:20.941Z,5.80
2022-09-25T21:12:10.637Z,7.23
2022-09-25T21:14:58.969Z,4.03
2022-09-25T21:17:47.459Z,4.43
2022-09-25T21:20:36.406Z,4.40
2022-09-25T21:23:25.133Z,4.60
2022-09-25T21:26:14.909Z,7.80
2022-09-25T21:29:05.737Z,4.83
2022-09-25T21:31:54.677Z,5.43
2022-09-25T21:34:43.093Z,6.53
2022-09-25T21:37:31.507Z,5.20
2022-09-25T21:40:19.894Z,4.67
2022-09-25T21:43:08.393Z,6.77
2022-09-25T21:46:01.485Z,9.93
2022-09-25T21:48:51.123Z,7.93
2022-09-25T21:51:41.163Z,6.47
2022-09-25T21:54:30.407Z,6.10
2022-09-25T21:57:18.748Z,3.70
2022-09-25T22:00:08.537Z,6.33
2022-09-25T22:02:58.278Z,7.17
2022-09-25T22:05:48.048Z,5.70
2022-09-25T22:08:37.285Z,6.10
2022-09-25T22:11:25.922Z,5.40
2022-09-25T22:14:16.274Z,6.27
2022-09-25T22:17:05.162Z,5.87
2022-09-25T22:19:54.931Z,9.43
2022-09-25T22:22:43.468Z,5.00
2022-09-25T22:25:31.861Z,8.07
2022-09-25T22:28:21.536Z,9.60
2022-09-25T22:31:12.529Z,6.00
2022-09-25T22:34:02.158Z,6.93
2022-09-25T22:36:57.882Z,6.93
2022-09-25T22:39:47.229Z,7.47
2022-09-25T22:42:35.572Z,7.17
2022-09-25T22:45:23.916Z,12.33
2022-09-25T22:48:12.269Z,8.93
2022-09-25T22:51:02.129Z,7.50
2022-09-25T22:53:51.951Z,8.00
2022-09-25T22:56:40.426Z,8.20
2022-09-25T22:59:29.015Z,9.63
2022-09-25T23:02:17.336Z,6.43
2022-09-25T23:05:07.051Z,8.37
2022-09-25T23:07:55.432Z,7.17
2022-09-25T23:11:06.293Z,6.83
2022-09-25T23:13:58.732Z,14.53
2022-09-25T23:16:47.853Z,7.23
2022-09-25T23:19:36.346Z,6.40
2022-09-25T23:22:24.958Z,6.27
2022-09-25T23:25:13.324Z,8.60
2022-09-25T23:28:03.632Z,7.27
2022-09-25T23:30:52.049Z,6.87
2022-09-25T23:33:40.890Z,8.50
2022-09-25T23:36:29.499Z,9.30
2022-09-25T23:39:19.526Z,10.13
2022-09-25T23:42:07.857Z,5.50
2022-09-25T23:44:58.012Z,5.30
2022-09-25T23:47:46.342Z,8.13
2022-09-25T23:50:34.690Z,6.50
2022-09-25T23:53:23.029Z,10.03
2022-09-25T23:56:13.700Z,6.20
2022-09-25T23:59:02.321Z,9.77
